Time;durP1;ratioP1;P1;durP2;ratioP2;P2;SDS_P1;SDS_P2;PMS_P1;PMS_P2;Temp;Humidity;BMP_temperature;BMP_pressure;BME280_temperature;BME280_humidity;BME280_pressure;Samples;Min_cycle;Max_cycle;Signal;HPM_P1;HPM_P2
2021/06/29 00:01:03;;;;;;;2.53;2.33;;;16.10;99.90;;;;;;5115671;28;20402;-68
2021/06/29 00:03:29;;;;;;;4.00;3.57;;;16.30;99.90;;;;;;5115482;28;20208;-69
2021/06/29 00:05:55;;;;;;;3.43;3.10;;;16.40;99.90;;;;;;5115394;28;20496;-69
2021/06/29 00:08:20;;;;;;;2.70;2.50;;;16.70;99.90;;;;;;5115637;28;20570;-66
2021/06/29 00:10:47;;;;;;;2.90;2.70;;;16.80;99.90;;;;;;5115693;28;20600;-67
2021/06/29 00:13:13;;;;;;;9.80;3.40;;;17.00;99.90;;;;;;5115227;28;20213;-68
2021/06/29 00:15:39;;;;;;;3.30;3.00;;;16.90;99.90;;;;;;5115342;28;20436;-69
2021/06/29 00:18:05;;;;;;;2.77;2.53;;;16.60;99.90;;;;;;5115143;28;20864;-67
2021/06/29 00:20:31;;;;;;;3.23;2.97;;;16.50;99.90;;;;;;5115135;27;20175;-69
2021/06/29 00:22:57;;;;;;;3.60;3.30;;;16.60;99.90;;;;;;5115132;28;20429;-68
2021/06/29 00:25:22;;;;;;;3.00;2.80;;;16.80;99.90;;;;;;5115240;28;20394;-68
2021/06/29 00:27:48;;;;;;;2.90;2.70;;;16.90;99.90;;;;;;5114891;28;20206;-68
2021/06/29 00:30:14;;;;;;;3.57;3.37;;;17.00;99.90;;;;;;5115110;28;20176;-66
2021/06/29 00:32:40;;;;;;;2.70;2.50;;;17.00;99.90;;;;;;5114867;28;20188;-67
2021/06/29 00:35:06;;;;;;;3.17;2.97;;;17.00;99.90;;;;;;5115295;28;20810;-68
2021/06/29 00:37:32;;;;;;;3.37;3.07;;;17.00;99.90;;;;;;5114846;28;20176;-67
2021/06/29 00:39:58;;;;;;;2.43;2.20;;;17.10;99.90;;;;;;5114861;28;20447;-68
2021/06/29 00:42:24;;;;;;;2.77;2.10;;;16.80;99.90;;;;;;5114623;28;20433;-67
2021/06/29 00:44:49;;;;;;;2.27;2.17;;;16.70;99.90;;;;;;5114599;28;20530;-69
2021/06/29 00:47:15;;;;;;;2.23;2.13;;;16.70;99.90;;;;;;5114306;28;20581;-67
2021/06/29 00:49:41;;;;;;;2.37;2.20;;;16.80;99.90;;;;;;5114818;28;20161;-68
2021/06/29 00:52:12;;;;;;;2.90;2.80;;;16.90;99.90;;;;;;5113223;28;20239;-68
2021/06/29 00:54:38;;;;;;;3.00;2.30;;;16.90;99.90;;;;;;5114659;28;20405;-69
2021/06/29 00:57:04;;;;;;;1.90;1.80;;;17.00;99.90;;;;;;5114308;28;20408;-68
2021/06/29 00:59:32;;;;;;;2.27;2.13;;;16.90;99.90;;;;;;5114547;28;20546;-68
2021/06/29 01:01:58;;;;;;;1.70;1.60;;;16.80;99.90;;;;;;5113726;27;20436;-69
2021/06/29 01:04:24;;;;;;;2.50;2.40;;;16.80;99.90;;;;;;5114358;28;20410;-68
2021/06/29 01:06:51;;;;;;;2.33;2.20;;;16.60;99.90;;;;;;5113942;28;20210;-68
2021/06/29 01:09:18;;;;;;;2.80;2.60;;;16.60;99.90;;;;;;5114333;28;20776;-69
2021/06/29 01:11:44;;;;;;;2.07;1.97;;;16.40;99.90;;;;;;5114186;28;20511;-69
2021/06/29 01:14:12;;;;;;;2.63;2.43;;;16.50;99.90;;;;;;5114070;28;20409;-69
2021/06/29 01:16:38;;;;;;;2.20;2.00;;;16.60;99.90;;;;;;5114069;28;20402;-69
2021/06/29 01:19:04;;;;;;;2.40;2.30;;;16.60;99.90;;;;;;5114475;28;20406;-70
2021/06/29 01:21:36;;;;;;;3.23;3.03;;;16.60;99.90;;;;;;5114179;28;20451;-68
2021/06/29 01:24:03;;;;;;;2.60;2.40;;;16.80;99.90;;;;;;5114047;28;20167;-68
2021/06/29 01:26:31;;;;;;;5.57;2.80;;;16.70;99.90;;;;;;5113840;28;20472;-70
2021/06/29 01:29:05;;;;;;;3.27;3.03;;;16.70;99.90;;;;;;5114608;28;20775;-68
2021/06/29 01:31:33;;;;;;;2.47;2.27;;;16.90;99.90;;;;;;5114185;28;20418;-70
2021/06/29 01:33:59;;;;;;;3.73;3.50;;;17.00;99.90;;;;;;5113873;28;20923;-68
2021/06/29 01:36:33;;;;;;;3.37;2.80;;;17.10;99.90;;;;;;5113777;28;20409;-69
2021/06/29 01:38:59;;;;;;;3.50;3.30;;;17.10;99.90;;;;;;5114002;28;20405;-69
2021/06/29 01:41:26;;;;;;;3.70;3.40;;;17.20;99.90;;;;;;5113735;28;20437;-69
2021/06/29 01:43:55;;;;;;;4.00;3.70;;;17.30;99.90;;;;;;5113813;28;20473;-69
2021/06/29 01:46:24;;;;;;;3.30;3.10;;;17.30;99.90;;;;;;5113685;28;20989;-70
2021/06/29 01:48:51;;;;;;;4.13;3.30;;;17.40;99.90;;;;;;5112549;28;20406;-69
2021/06/29 01:51:18;;;;;;;3.30;3.07;;;17.40;99.90;;;;;;5113819;28;20426;-68
2021/06/29 01:53:46;;;;;;;3.37;3.17;;;17.40;99.90;;;;;;5113660;28;20401;-68
2021/06/29 01:56:15;;;;;;;3.30;3.10;;;17.30;99.90;;;;;;5113473;28;20462;-67
2021/06/29 01:59:07;;;;;;;2.33;2.13;;;17.40;99.90;;;;;;5113682;28;20941;-67
2021/06/29 02:01:32;;;;;;;2.30;2.10;;;17.30;99.90;;;;;;5113704;28;20430;-70
2021/06/29 02:03:58;;;;;;;2.60;2.40;;;17.30;99.90;;;;;;5113577;28;20783;-68
2021/06/29 02:06:23;;;;;;;2.10;2.00;;;17.20;99.90;;;;;;5113869;28;20245;-69
2021/06/29 02:08:49;;;;;;;2.77;2.60;;;17.10;99.90;;;;;;5112319;28;20233;-69
2021/06/29 02:11:15;;;;;;;2.23;2.13;;;17.10;99.90;;;;;;5113476;28;21871;-68
2021/06/29 02:13:41;;;;;;;2.70;2.50;;;17.00;99.90;;;;;;5115603;28;20164;-70
2021/06/29 02:16:06;;;;;;;2.60;2.40;;;16.90;99.90;;;;;;5117531;28;20627;-69
2021/06/29 02:18:33;;;;;;;3.00;2.33;;;16.90;99.90;;;;;;5117643;28;20171;-69
2021/06/29 02:20:59;;;;;;;2.70;2.60;;;16.70;99.90;;;;;;5117907;28;20175;-69
2021/06/29 02:23:24;;;;;;;3.00;2.80;;;16.60;99.90;;;;;;5117661;28;20906;-69
2021/06/29 02:25:50;;;;;;;2.50;2.40;;;16.70;99.90;;;;;;5117144;28;20199;-67
2021/06/29 02:28:17;;;;;;;2.57;2.43;;;16.80;99.90;;;;;;5117680;28;20880;-68
2021/06/29 02:30:42;;;;;;;2.13;2.03;;;16.70;99.90;;;;;;5117268;27;20390;-69
2021/06/29 02:33:09;;;;;;;10.13;2.67;;;16.50;99.90;;;;;;5117152;28;20834;-70
2021/06/29 02:35:35;;;;;;;3.20;3.00;;;16.30;99.90;;;;;;5117249;28;20210;-69
2021/06/29 02:38:01;;;;;;;2.57;2.37;;;16.30;99.90;;;;;;5116965;28;20402;-67
2021/06/29 02:40:27;;;;;;;2.83;2.63;;;16.30;99.90;;;;;;5117176;28;20821;-70
2021/06/29 02:42:52;;;;;;;2.90;2.70;;;16.30;99.90;;;;;;5116985;28;20673;-68
2021/06/29 02:45:20;;;;;;;2.70;2.50;;;16.40;99.90;;;;;;5117041;28;20179;-69
2021/06/29 02:47:47;;;;;;;3.50;3.30;;;16.40;99.90;;;;;;5116942;28;20195;-68
2021/06/29 02:50:14;;;;;;;2.07;1.97;;;16.50;99.90;;;;;;5116912;28;20404;-68
2021/06/29 02:52:39;;;;;;;2.00;1.90;;;16.50;99.90;;;;;;5115573;28;20433;-70
2021/06/29 02:55:08;;;;;;;2.80;2.60;;;16.50;99.90;;;;;;5116889;28;20485;-68
2021/06/29 02:57:34;;;;;;;2.53;2.33;;;16.60;99.90;;;;;;5116786;28;20650;-68
2021/06/29 03:00:00;;;;;;;2.47;2.27;;;16.60;99.90;;;;;;5116890;28;20904;-70
2021/06/29 03:02:25;;;;;;;2.70;2.60;;;16.60;99.90;;;;;;5116687;28;20414;-67
2021/06/29 03:04:51;;;;;;;4.00;2.57;;;16.60;99.90;;;;;;5116658;28;20180;-69
2021/06/29 03:07:17;;;;;;;3.00;2.80;;;16.70;99.90;;;;;;5116469;28;20207;-68
2021/06/29 03:09:43;;;;;;;3.40;3.13;;;16.70;99.90;;;;;;5116769;28;20762;-69
2021/06/29 03:12:10;;;;;;;2.33;2.13;;;16.60;99.90;;;;;;5116535;28;20196;-70
2021/06/29 03:14:36;;;;;;;2.70;2.57;;;16.70;99.90;;;;;;5116487;28;20776;-69
2021/06/29 03:17:06;;;;;;;2.27;2.17;;;16.50;99.90;;;;;;5116212;28;20410;-69
2021/06/29 03:19:32;;;;;;;3.13;2.93;;;16.40;99.90;;;;;;5116326;28;20428;-66
2021/06/29 03:21:59;;;;;;;3.00;2.80;;;16.50;99.90;;;;;;5116233;28;20479;-68
2021/06/29 03:24:26;;;;;;;2.30;2.20;;;16.40;99.90;;;;;;5115730;28;20418;-69
2021/06/29 03:26:52;;;;;;;3.43;3.20;;;16.60;99.90;;;;;;5115862;28;20456;-68
2021/06/29 03:29:18;;;;;;;3.57;3.37;;;16.80;99.90;;;;;;5116338;28;20462;-69
2021/06/29 03:31:44;;;;;;;3.63;3.33;;;16.80;99.90;;;;;;5116156;28;20231;-67
2021/06/29 03:34:09;;;;;;;3.37;3.00;;;16.60;99.90;;;;;;5116098;28;20424;-69
2021/06/29 03:36:35;;;;;;;4.27;3.70;;;16.70;99.90;;;;;;5116067;28;20168;-68
2021/06/29 03:39:01;;;;;;;3.27;3.03;;;16.70;99.90;;;;;;5116355;28;20167;-70
2021/06/29 03:41:27;;;;;;;3.33;3.13;;;16.80;99.90;;;;;;5115921;28;20928;-67
2021/06/29 03:43:53;;;;;;;3.40;3.20;;;16.90;99.90;;;;;;5115864;28;20168;-67
2021/06/29 03:46:19;;;;;;;3.40;2.73;;;17.00;99.90;;;;;;5115463;28;20685;-67
2021/06/29 03:48:45;;;;;;;3.50;3.03;;;17.00;99.90;;;;;;5115812;28;20473;-69
2021/06/29 03:51:10;;;;;;;3.00;2.80;;;17.00;99.90;;;;;;5115883;28;20180;-68
2021/06/29 03:53:36;;;;;;;3.10;2.90;;;17.10;99.90;;;;;;5115724;27;20635;-67
2021/06/29 03:56:02;;;;;;;4.43;3.93;;;17.00;99.90;;;;;;5115577;28;20635;-67
2021/06/29 03:58:28;;;;;;;2.83;2.53;;;16.90;99.90;;;;;;5115778;28;20164;-68
2021/06/29 04:00:53;;;;;;;3.30;3.10;;;16.90;99.90;;;;;;5115663;28;20186;-67
2021/06/29 04:03:19;;;;;;;4.13;3.83;;;16.90;99.90;;;;;;5115573;28;20425;-68
2021/06/29 04:05:45;;;;;;;3.50;3.30;;;16.70;99.90;;;;;;5115412;28;20170;-67
2021/06/29 04:08:10;;;;;;;2.80;2.60;;;16.80;99.90;;;;;;5115604;28;20175;-68
2021/06/29 04:10:36;;;;;;;3.23;2.90;;;16.80;99.90;;;;;;5115493;28;20632;-68
2021/06/29 04:13:02;;;;;;;3.67;3.37;;;16.80;99.90;;;;;;5115182;28;20196;-69
2021/06/29 04:15:27;;;;;;;4.27;3.60;;;16.70;99.90;;;;;;5115396;28;20216;-69
2021/06/29 04:17:53;;;;;;;3.10;2.80;;;16.50;99.90;;;;;;5115062;28;20884;-68
2021/06/29 04:20:19;;;;;;;2.93;2.70;;;16.50;99.90;;;;;;5115157;28;20179;-69
2021/06/29 04:22:44;;;;;;;3.77;3.47;;;16.50;99.90;;;;;;5115291;28;20239;-69
2021/06/29 04:25:11;;;;;;;3.80;3.50;;;16.50;99.90;;;;;;5115147;28;20175;-70
2021/06/29 04:27:37;;;;;;;3.20;3.00;;;16.60;99.90;;;;;;5114742;28;20202;-68
2021/06/29 04:30:05;;;;;;;4.10;3.80;;;16.80;99.90;;;;;;5115084;28;20409;-69
2021/06/29 04:32:31;;;;;;;3.77;3.57;;;16.90;99.90;;;;;;5114839;28;20525;-69
2021/06/29 04:34:57;;;;;;;3.40;3.20;;;17.00;99.90;;;;;;5113634;28;20437;-70
2021/06/29 04:37:24;;;;;;;3.17;2.97;;;17.00;99.90;;;;;;5113966;28;20753;-68
2021/06/29 04:39:49;;;;;;;3.50;3.20;;;17.00;99.90;;;;;;5114934;28;20183;-69
2021/06/29 04:42:15;;;;;;;2.50;2.30;;;17.10;99.90;;;;;;5114843;28;20532;-67
2021/06/29 04:44:41;;;;;;;4.73;3.07;;;17.20;99.90;;;;;;5114633;28;20176;-67
2021/06/29 04:47:07;;;;;;;3.30;3.10;;;17.20;99.90;;;;;;5114408;28;20595;-68
2021/06/29 04:49:33;;;;;;;3.07;2.87;;;17.20;99.90;;;;;;5114629;28;20183;-69
2021/06/29 04:51:59;;;;;;;3.10;2.90;;;17.00;99.90;;;;;;5114602;28;20427;-68
2021/06/29 04:54:24;;;;;;;4.10;2.70;;;16.90;99.90;;;;;;5114510;28;20164;-68
2021/06/29 04:56:50;;;;;;;3.53;3.23;;;16.90;99.90;;;;;;5114293;28;20544;-69
2021/06/29 04:59:16;;;;;;;3.47;3.17;;;17.00;99.90;;;;;;5114515;28;20293;-67
2021/06/29 05:01:42;;;;;;;3.10;2.90;;;17.00;99.90;;;;;;5114322;28;20713;-67
2021/06/29 05:04:08;;;;;;;3.27;3.07;;;17.00;99.90;;;;;;5114363;28;20889;-69
2021/06/29 05:06:34;;;;;;;3.50;3.20;;;16.90;99.90;;;;;;5114014;28;20502;-68
2021/06/29 05:09:00;;;;;;;3.70;3.40;;;16.90;99.90;;;;;;5112886;28;20902;-68
2021/06/29 05:11:25;;;;;;;3.83;2.63;;;16.90;99.90;;;;;;5114217;28;20525;-68
2021/06/29 05:13:51;;;;;;;2.63;2.43;;;16.90;99.90;;;;;;5113555;28;20190;-66
2021/06/29 05:16:17;;;;;;;3.23;2.37;;;17.00;99.90;;;;;;5113899;28;20228;-67
2021/06/29 05:18:42;;;;;;;2.77;2.60;;;17.00;99.90;;;;;;5114497;28;20567;-69
2021/06/29 05:21:08;;;;;;;5.00;3.67;;;17.00;99.90;;;;;;5114305;28;20537;-67
2021/06/29 05:23:34;;;;;;;2.90;2.70;;;17.00;99.90;;;;;;5114046;28;20167;-66
2021/06/29 05:25:59;;;;;;;3.27;3.00;;;17.20;99.90;;;;;;5113890;28;20167;-68
2021/06/29 05:28:25;;;;;;;3.27;3.07;;;17.30;99.90;;;;;;5114119;28;20221;-68
2021/06/29 05:30:51;;;;;;;2.60;2.50;;;17.40;99.90;;;;;;5113894;28;20168;-67
2021/06/29 05:33:18;;;;;;;3.40;3.00;;;17.50;99.90;;;;;;5113827;28;20954;-69
2021/06/29 05:35:44;;;;;;;3.00;2.80;;;17.50;99.90;;;;;;5113772;28;20164;-69
2021/06/29 05:38:10;;;;;;;3.60;3.30;;;17.50;99.90;;;;;;5114038;28;20398;-68
2021/06/29 05:40:36;;;;;;;5.03;3.03;;;17.50;99.90;;;;;;5112723;28;20435;-67
2021/06/29 05:43:02;;;;;;;3.33;3.13;;;17.50;99.90;;;;;;5113716;27;20928;-68
2021/06/29 05:45:28;;;;;;;2.60;2.40;;;17.60;99.90;;;;;;5113581;28;20429;-70
2021/06/29 05:47:55;;;;;;;3.60;3.30;;;17.50;99.90;;;;;;5113283;28;20454;-68
2021/06/29 05:50:21;;;;;;;3.40;3.10;;;17.50;99.90;;;;;;5112391;28;20715;-67
2021/06/29 05:52:47;;;;;;;3.10;2.90;;;17.50;99.90;;;;;;5113610;28;20784;-70
2021/06/29 05:55:13;;;;;;;2.77;2.67;;;17.60;99.90;;;;;;5113023;28;20401;-68
2021/06/29 05:57:39;;;;;;;3.13;2.93;;;17.60;99.90;;;;;;5113449;28;20168;-67
2021/06/29 06:00:16;;;;;;;2.50;2.40;;;17.60;99.90;;;;;;5113635;28;20398;-70
2021/06/29 06:02:42;;;;;;;2.50;2.30;;;17.80;99.90;;;;;;5113525;28;20453;-69
2021/06/29 06:05:10;;;;;;;2.23;2.10;;;18.00;99.90;;;;;;5113765;28;20405;-68
2021/06/29 06:07:36;;;;;;;1.90;1.80;;;18.20;99.90;;;;;;5113362;28;20184;-68
2021/06/29 06:10:03;;;;;;;7.00;1.67;;;18.60;99.90;;;;;;5113143;28;20913;-68
2021/06/29 06:12:29;;;;;;;3.17;1.90;;;19.30;99.90;;;;;;5113867;28;20429;-69
2021/06/29 06:14:55;;;;;;;1.50;1.43;;;19.90;99.90;;;;;;5113141;28;20733;-70
2021/06/29 06:17:22;;;;;;;2.60;1.97;;;20.50;99.20;;;;;;5113497;28;20164;-68
2021/06/29 06:19:48;;;;;;;1.80;1.70;;;20.80;98.50;;;;;;5113563;28;20804;-67
2021/06/29 06:22:14;;;;;;;2.00;1.50;;;20.60;97.90;;;;;;5113366;28;20424;-70
2021/06/29 06:24:40;;;;;;;1.43;1.33;;;20.70;98.70;;;;;;5113343;28;20403;-68
2021/06/29 06:27:08;;;;;;;1.10;1.10;;;21.10;96.90;;;;;;5113122;28;20528;-68
2021/06/29 06:29:34;;;;;;;2.07;1.87;;;21.60;97.10;;;;;;5113425;28;20269;-68
2021/06/29 06:32:00;;;;;;;1.20;1.10;;;22.80;95.00;;;;;;5113554;28;20418;-68
2021/06/29 06:34:26;;;;;;;1.30;1.20;;;24.20;93.00;;;;;;5113388;28;20940;-68
2021/06/29 06:36:52;;;;;;;2.33;1.20;;;24.70;91.30;;;;;;5113109;28;20426;-68
2021/06/29 06:39:17;;;;;;;1.47;1.37;;;24.90;87.50;;;;;;5113238;28;20538;-67
2021/06/29 06:41:43;;;;;;;1.20;1.10;;;24.90;86.50;;;;;;5113117;28;20735;-70
2021/06/29 06:44:09;;;;;;;1.60;1.40;;;24.90;87.80;;;;;;5113306;28;20175;-68
2021/06/29 06:46:34;;;;;;;1.40;1.37;;;24.70;89.40;;;;;;5112803;28;20231;-69
2021/06/29 06:49:00;;;;;;;0.90;0.90;;;24.90;87.90;;;;;;5113301;28;20168;-68
2021/06/29 06:51:26;;;;;;;1.23;1.07;;;25.40;85.40;;;;;;5113141;28;20218;-69
2021/06/29 06:53:51;;;;;;;1.67;1.23;;;25.50;85.80;;;;;;5113363;28;20164;-70
2021/06/29 06:56:17;;;;;;;0.90;0.80;;;25.50;86.10;;;;;;5112896;28;20581;-68
2021/06/29 06:58:45;;;;;;;1.30;1.00;;;25.50;82.60;;;;;;5113021;28;20209;-67
2021/06/29 07:01:12;;;;;;;1.13;1.00;;;26.20;82.80;;;;;;5115593;28;20204;-70
2021/06/29 07:03:38;;;;;;;4.43;1.17;;;27.00;79.10;;;;;;5116591;28;20513;-69
2021/06/29 07:06:05;;;;;;;1.07;1.07;;;28.00;78.00;;;;;;5116571;28;20522;-69
2021/06/29 07:08:32;;;;;;;0.93;0.90;;;28.20;71.80;;;;;;5116548;28;20398;-69
2021/06/29 07:10:58;;;;;;;1.30;0.80;;;28.50;68.60;;;;;;5116564;28;20451;-70
2021/06/29 07:13:24;;;;;;;0.77;0.70;;;29.20;68.30;;;;;;5116482;28;20409;-68
2021/06/29 07:15:50;;;;;;;1.47;0.60;;;29.70;67.20;;;;;;5116356;28;20398;-69
2021/06/29 07:18:16;;;;;;;0.73;0.73;;;30.00;65.10;;;;;;5116474;28;20195;-69
2021/06/29 07:20:47;;;;;;;1.03;1.00;;;30.30;63.00;;;;;;5116521;28;20164;-70
2021/06/29 07:23:14;;;;;;;1.07;0.77;;;30.20;61.00;;;;;;5116473;28;20465;-70
2021/06/29 07:25:41;;;;;;;0.90;0.90;;;29.60;62.90;;;;;;5116194;28;20454;-70
2021/06/29 07:28:08;;;;;;;0.80;0.80;;;28.70;62.40;;;;;;5116223;28;20450;-70
2021/06/29 07:30:35;;;;;;;2.40;0.97;;;27.70;64.80;;;;;;5116370;28;20403;-67
2021/06/29 07:33:01;;;;;;;1.30;0.90;;;26.70;68.40;;;;;;5116025;28;20950;-68
2021/06/29 07:35:28;;;;;;;3.37;1.20;;;25.80;76.50;;;;;;5115981;28;20398;-70
2021/06/29 07:37:55;;;;;;;1.33;1.23;;;25.30;75.20;;;;;;5115950;28;20534;-70
2021/06/29 07:40:21;;;;;;;1.20;1.10;;;25.30;76.90;;;;;;5115983;28;20879;-69
2021/06/29 07:42:46;;;;;;;0.80;0.80;;;25.40;78.20;;;;;;5115846;28;20507;-70
2021/06/29 07:45:12;;;;;;;0.90;0.90;;;25.40;78.70;;;;;;5115884;28;20168;-70
2021/06/29 07:47:38;;;;;;;1.00;1.00;;;25.80;74.10;;;;;;5115891;28;20237;-68
2021/06/29 07:50:06;;;;;;;0.77;0.77;;;25.80;76.60;;;;;;5115903;28;20377;-68
2021/06/29 07:52:32;;;;;;;0.83;0.83;;;26.50;79.70;;;;;;5115692;28;20180;-70
2021/06/29 07:54:58;;;;;;;0.90;0.90;;;27.80;75.10;;;;;;5115758;28;20406;-69
2021/06/29 07:57:23;;;;;;;0.50;0.50;;;29.20;66.50;;;;;;5115537;27;20172;-68
2021/06/29 07:59:49;;;;;;;1.17;0.70;;;29.70;62.80;;;;;;5115702;28;20193;-70
2021/06/29 08:02:15;;;;;;;1.13;1.13;;;30.20;64.80;;;;;;5114233;28;20202;-68
2021/06/29 08:04:41;;;;;;;1.50;1.10;;;31.30;58.30;;;;;;5115400;28;20168;-70
2021/06/29 08:07:07;;;;;;;2.87;1.10;;;32.00;55.10;;;;;;5115319;28;20227;-68
2021/06/29 08:09:32;;;;;;;1.67;0.80;;;31.80;58.00;;;;;;5115583;28;20483;-71
2021/06/29 08:11:58;;;;;;;1.47;1.07;;;31.80;55.80;;;;;;5115352;28;20325;-68
2021/06/29 08:14:24;;;;;;;0.80;0.80;;;31.80;56.10;;;;;;5115314;28;20214;-70
2021/06/29 08:16:50;;;;;;;0.87;0.87;;;32.10;52.00;;;;;;5115128;28;20410;-69
2021/06/29 08:19:17;;;;;;;0.70;0.70;;;32.70;51.40;;;;;;5115346;28;20175;-68
2021/06/29 08:21:43;;;;;;;0.70;0.70;;;32.40;51.90;;;;;;5115242;28;20658;-70
2021/06/29 08:24:08;;;;;;;1.03;1.00;;;31.40;53.10;;;;;;5115110;28;20405;-70
2021/06/29 08:26:34;;;;;;;0.90;0.80;;;30.60;54.20;;;;;;5114767;28;20448;-68
2021/06/29 08:29:01;;;;;;;1.53;0.80;;;29.40;58.60;;;;;;5115312;28;20176;-69
2021/06/29 08:31:26;;;;;;;1.90;1.00;;;28.10;59.10;;;;;;5115036;28;20192;-69
2021/06/29 08:33:55;;;;;;;1.10;1.00;;;27.20;64.10;;;;;;5114676;28;20764;-70
2021/06/29 08:36:22;;;;;;;0.93;0.77;;;27.20;68.90;;;;;;5114669;28;20202;-70
2021/06/29 08:38:48;;;;;;;0.80;0.80;;;27.40;62.30;;;;;;5114806;28;20417;-70
2021/06/29 08:41:15;;;;;;;0.70;0.70;;;27.40;66.70;;;;;;5114723;28;20381;-70
2021/06/29 08:43:42;;;;;;;1.63;0.60;;;26.60;67.40;;;;;;5114796;28;20398;-69
2021/06/29 08:46:09;;;;;;;1.40;0.83;;;26.50;67.60;;;;;;5114281;28;20396;-68
2021/06/29 08:48:35;;;;;;;1.47;0.70;;;26.70;67.30;;;;;;5114614;28;20757;-68
2021/06/29 08:51:05;;;;;;;0.83;0.83;;;26.50;68.50;;;;;;5114693;28;20369;-67
2021/06/29 08:53:32;;;;;;;1.43;1.07;;;26.00;66.90;;;;;;5114853;28;20144;-70
2021/06/29 08:55:58;;;;;;;0.70;0.70;;;26.40;70.90;;;;;;5114406;28;20453;-70
2021/06/29 08:58:24;;;;;;;0.90;0.90;;;27.30;62.30;;;;;;5114583;28;20397;-70
2021/06/29 09:00:52;;;;;;;1.40;0.63;;;28.50;62.30;;;;;;5114292;28;20443;-68
2021/06/29 09:03:18;;;;;;;1.20;0.70;;;29.80;59.00;;;;;;5114341;28;20454;-69
2021/06/29 09:05:50;;;;;;;1.00;1.00;;;31.10;55.30;;;;;;5114575;28;20433;-70
2021/06/29 09:08:18;;;;;;;0.80;0.80;;;32.20;56.30;;;;;;5113060;28;20674;-69
2021/06/29 09:11:09;;;;;;;0.80;0.80;;;32.40;54.20;;;;;;5114408;28;20759;-68
2021/06/29 09:13:36;;;;;;;1.00;1.00;;;32.00;53.50;;;;;;5114248;28;20393;-70
2021/06/29 09:16:03;;;;;;;2.20;1.40;;;31.60;53.60;;;;;;5114212;28;20398;-70
2021/06/29 09:18:32;;;;;;;1.00;1.00;;;31.30;57.30;;;;;;5114340;28;20430;-70
2021/06/29 09:21:05;;;;;;;1.30;1.07;;;31.70;55.60;;;;;;5114295;28;20406;-69
2021/06/29 09:23:31;;;;;;;0.80;0.70;;;32.10;52.60;;;;;;5113620;28;20382;-70
2021/06/29 09:26:04;;;;;;;1.90;1.07;;;31.40;52.90;;;;;;5114205;28;20489;-68
2021/06/29 09:28:33;;;;;;;0.63;0.63;;;30.90;53.50;;;;;;5114212;28;20218;-69
2021/06/29 09:31:04;;;;;;;0.80;0.80;;;30.60;56.80;;;;;;5114192;28;20746;-71
2021/06/29 09:33:35;;;;;;;1.70;0.83;;;31.00;55.20;;;;;;5113901;28;20397;-70
2021/06/29 09:36:12;;;;;;;0.50;0.50;;;31.20;55.10;;;;;;5113807;28;20406;-68
2021/06/29 09:38:40;;;;;;;0.70;0.70;;;31.10;49.40;;;;;;5114081;28;20390;-69
2021/06/29 09:41:08;;;;;;;0.90;0.90;;;31.00;51.40;;;;;;5113836;28;20434;-70
2021/06/29 09:43:40;;;;;;;0.80;0.60;;;31.00;54.30;;;;;;5113774;28;20485;-69
2021/06/29 09:46:07;;;;;;;1.47;0.90;;;30.30;53.90;;;;;;5112183;28;20422;-68
2021/06/29 09:48:41;;;;;;;0.63;0.63;;;29.50;55.80;;;;;;5113914;28;20398;-69
2021/06/29 09:51:26;;;;;;;0.80;0.80;;;29.40;54.70;;;;;;5113668;28;20390;-68
2021/06/29 09:53:54;;;;;;;0.63;0.63;;;29.60;53.70;;;;;;5113611;28;20473;-69
2021/06/29 09:56:25;;;;;;;1.10;0.80;;;30.60;51.70;;;;;;5113461;28;20552;-70
2021/06/29 09:58:53;;;;;;;1.53;1.37;;;31.30;50.40;;;;;;5113736;28;20409;-69
2021/06/29 10:01:22;;;;;;;0.80;0.80;;;30.80;50.00;;;;;;5113687;28;20422;-68
2021/06/29 10:03:52;;;;;;;0.60;0.60;;;29.80;52.30;;;;;;5113606;28;20759;-70
2021/06/29 10:06:26;;;;;;;0.70;0.70;;;29.20;55.60;;;;;;5113470;28;20526;-70
2021/06/29 10:08:54;;;;;;;0.80;0.80;;;28.30;59.20;;;;;;5113808;28;20447;-69
2021/06/29 10:11:27;;;;;;;0.80;0.80;;;27.70;56.60;;;;;;5113612;28;20426;-70
2021/06/29 10:14:04;;;;;;;0.70;0.70;;;27.60;64.60;;;;;;5113454;28;20766;-70
2021/06/29 10:16:33;;;;;;;0.60;0.60;;;27.90;57.20;;;;;;5113331;28;20410;-70
2021/06/29 10:21:28;;;;;;;1.07;0.97;;;28.10;58.10;;;;;;5113442;28;20449;-67
2021/06/29 10:23:56;;;;;;;1.20;1.10;;;27.70;58.40;;;;;;5113418;28;20410;-68
2021/06/29 10:26:24;;;;;;;1.90;1.40;;;27.10;59.60;;;;;;5113218;28;20472;-70
2021/06/29 10:28:52;;;;;;;1.53;1.43;;;26.40;65.40;;;;;;5113325;28;20429;-67
2021/06/29 10:31:29;;;;;;;1.40;1.30;;;25.20;71.40;;;;;;5113242;28;20394;-67
2021/06/29 10:33:59;;;;;;;1.80;1.60;;;24.30;75.50;;;;;;5113749;28;20368;-69
2021/06/29 10:36:26;;;;;;;1.57;1.47;;;23.50;79.20;;;;;;5116274;28;20368;-69
2021/06/29 10:38:55;;;;;;;2.43;2.23;;;22.90;82.50;;;;;;5117306;28;20436;-70
2021/06/29 10:41:23;;;;;;;2.10;1.90;;;22.30;84.90;;;;;;5116833;28;20776;-67
2021/06/29 10:43:50;;;;;;;2.30;2.10;;;21.80;89.60;;;;;;5117125;28;20399;-68
2021/06/29 10:46:40;;;;;;;2.83;2.63;;;21.50;92.20;;;;;;5116619;28;20521;-69
2021/06/29 10:49:33;;;;;;;2.97;2.70;;;21.20;94.30;;;;;;5116944;28;20415;-70
2021/06/29 10:52:03;;;;;;;2.50;2.30;;;21.00;95.20;;;;;;5116818;28;20416;-67
2021/06/29 10:54:36;;;;;;;5.30;2.67;;;20.90;96.00;;;;;;5116999;28;20447;-69
2021/06/29 10:57:11;;;;;;;1.20;1.10;;;20.60;94.60;;;;;;5116593;28;20908;-68
2021/06/29 10:59:39;;;;;;;1.53;0.70;;;20.10;91.70;;;;;;5116978;28;20393;-68
2021/06/29 11:02:07;;;;;;;1.07;0.90;;;19.30;90.70;;;;;;5116725;28;20432;-68
2021/06/29 11:04:53;;;;;;;0.60;0.53;;;18.80;88.90;;;;;;5116715;28;20425;-69
2021/06/29 11:07:31;;;;;;;2.63;0.63;;;18.20;90.10;;;;;;5116449;28;20445;-68
2021/06/29 11:10:26;;;;;;;0.60;0.60;;;17.60;92.40;;;;;;5116680;28;20433;-67
2021/06/29 11:12:53;;;;;;;0.80;0.80;;;17.30;93.70;;;;;;5116639;28;20422;-69
2021/06/29 11:15:38;;;;;;;0.60;0.60;;;16.90;95.40;;;;;;5116520;28;20405;-70
2021/06/29 11:18:04;;;;;;;0.90;0.90;;;16.60;96.20;;;;;;5116536;28;20398;-68
2021/06/29 11:20:40;;;;;;;0.60;0.60;;;16.40;97.80;;;;;;5116324;28;20410;-70
2021/06/29 11:23:23;;;;;;;0.60;0.60;;;16.30;97.50;;;;;;5116261;28;20482;-67
2021/06/29 11:25:53;;;;;;;2.70;0.70;;;16.10;97.80;;;;;;5116372;28;20432;-69
2021/06/29 11:28:43;;;;;;;1.00;0.90;;;16.00;99.30;;;;;;5116055;28;20459;-69
2021/06/29 11:31:36;;;;;;;0.70;0.70;;;16.00;99.90;;;;;;5116308;28;20406;-66
2021/06/29 11:34:05;;;;;;;0.53;0.53;;;15.90;99.90;;;;;;5114918;28;20406;-68
2021/06/29 11:36:32;;;;;;;0.87;0.60;;;16.00;99.90;;;;;;5115913;28;20443;-68
2021/06/29 11:39:13;;;;;;;1.43;1.27;;;16.20;99.90;;;;;;5116207;28;20767;-67
2021/06/29 11:41:41;;;;;;;1.80;0.80;;;16.30;99.90;;;;;;5116133;28;20802;-69
2021/06/29 11:44:06;;;;;;;0.70;0.70;;;16.20;99.90;;;;;;5115924;28;20884;-67
2021/06/29 11:47:04;;;;;;;0.70;0.70;;;16.30;99.90;;;;;;5115040;28;20458;-67
2021/06/29 11:49:41;;;;;;;0.83;0.83;;;16.10;99.90;;;;;;5115966;28;20571;-69
2021/06/29 11:52:17;;;;;;;0.93;0.60;;;16.20;99.90;;;;;;5115691;28;20546;-69
2021/06/29 11:54:44;;;;;;;0.83;0.70;;;16.20;99.90;;;;;;5115915;28;20408;-68
2021/06/29 11:57:29;;;;;;;0.80;0.80;;;16.00;99.90;;;;;;5114140;28;20930;-67
2021/06/29 11:59:57;;;;;;;0.90;0.80;;;16.20;99.90;;;;;;5115555;28;20405;-70
2021/06/29 12:02:31;;;;;;;1.07;1.03;;;16.30;99.90;;;;;;5114220;28;20855;-68
2021/06/29 12:05:05;;;;;;;0.70;0.70;;;16.20;99.90;;;;;;5115714;28;20405;-69
2021/06/29 12:07:40;;;;;;;3.80;1.10;;;16.10;99.90;;;;;;5115385;28;20476;-67
2021/06/29 12:10:24;;;;;;;0.90;0.90;;;16.20;99.90;;;;;;5115583;28;20402;-69
2021/06/29 12:12:55;;;;;;;0.50;0.50;;;16.40;99.90;;;;;;5115483;28;20441;-67
2021/06/29 12:15:26;;;;;;;0.90;0.90;;;16.50;99.90;;;;;;5115733;28;20438;-68
2021/06/29 12:17:57;;;;;;;0.90;0.90;;;16.50;99.90;;;;;;5115102;28;20408;-69
2021/06/29 12:20:27;;;;;;;0.63;0.63;;;16.50;99.90;;;;;;5115289;28;20404;-67
2021/06/29 12:22:53;;;;;;;0.80;0.80;;;16.50;99.90;;;;;;5115085;28;20464;-69
2021/06/29 12:25:29;;;;;;;1.40;1.10;;;16.40;99.90;;;;;;5115075;28;20824;-69
2021/06/29 12:28:02;;;;;;;1.40;1.17;;;16.40;99.90;;;;;;5114816;28;20814;-66
2021/06/29 12:30:42;;;;;;;1.03;0.83;;;16.40;99.90;;;;;;5115150;28;20896;-69
2021/06/29 12:33:20;;;;;;;0.97;0.97;;;16.40;99.90;;;;;;5114868;28;20440;-69
2021/06/29 12:36:08;;;;;;;0.90;0.90;;;16.40;99.90;;;;;;5114728;28;20393;-68
2021/06/29 12:38:40;;;;;;;0.97;0.97;;;16.40;99.90;;;;;;5114635;28;20410;-67
2021/06/29 12:41:08;;;;;;;1.83;0.70;;;16.30;99.90;;;;;;5114922;28;20390;-69
2021/06/29 12:43:39;;;;;;;0.70;0.60;;;16.40;99.90;;;;;;5114691;28;20410;-67
2021/06/29 12:46:26;;;;;;;0.90;0.90;;;16.50;99.90;;;;;;5114348;28;20816;-67
2021/06/29 12:49:20;;;;;;;1.87;1.00;;;16.50;99.90;;;;;;5114869;28;20895;-67
2021/06/29 12:52:01;;;;;;;1.20;1.10;;;16.70;99.90;;;;;;5114887;28;20432;-68
2021/06/29 12:54:29;;;;;;;3.97;1.70;;;16.70;99.90;;;;;;5115072;28;20393;-68
2021/06/29 12:57:12;;;;;;;1.77;1.67;;;16.80;99.90;;;;;;5114401;28;20397;-69